Terminal Aerodrome Forecast
Issued by NWS

Home | Current Version | Previous Version | Text Only | Print | Product List | Glossary On
Versions: 1 2 3 4 5 6 7 8 9 10 11 12 13 14 15
000
FTUS45 KABQ 040500
TAFAEG
TAF
KAEG 040527Z 0406/0506 32007KT P6SM VCSH BKN090
     FM041000 VRB04KT P6SM BKN090
     FM042000 19014KT P6SM VCTS BKN080CB
     FM050200 12012KT P6SM TSRA OVC060CB=

USA.gov is the U.S. government's official web portal to all federal, state and local government web resources and services.